Time;durP1;ratioP1;P1;durP2;ratioP2;P2;SDS_P1;SDS_P2;PMS_P1;PMS_P2;Temp;Humidity;BMP_temperature;BMP_pressure;BME280_temperature;BME280_humidity;BME280_pressure;Samples;Min_cycle;Max_cycle;Signal;HPM_P1;HPM_P2
2021/05/30 00:00:02;;;;;;;4.88;2.30;;;460.80;1280.00;;;;;;5094380;28;20031;-75
2021/05/30 00:02:27;;;;;;;6.55;2.60;;;460.80;1280.00;;;;;;5094458;28;20016;-75
2021/05/30 00:04:53;;;;;;;4.00;2.13;;;460.80;1305.60;;;;;;5092646;28;20089;-75
2021/05/30 00:07:22;;;;;;;5.85;2.42;;;460.80;1305.60;;;;;;5094197;28;20034;-75
2021/05/30 00:09:48;;;;;;;3.05;2.10;;;460.80;1305.60;;;;;;5094332;28;20070;-75
2021/05/30 00:12:14;;;;;;;2.92;2.28;;;436.10;1305.60;;;;;;5094207;28;20381;-74
2021/05/30 00:14:40;;;;;;;5.22;2.15;;;436.10;1280.00;;;;;;5094269;28;20025;-75
2021/05/30 00:17:05;;;;;;;5.68;1.85;;;436.10;1305.60;;;;;;5093385;28;20106;-75
2021/05/30 00:19:40;;;;;;;3.72;2.10;;;436.10;1305.60;;;;;;5094051;28;20077;-75
2021/05/30 00:22:06;;;;;;;6.20;2.38;;;436.10;1305.60;;;;;;5094103;28;20140;-74
2021/05/30 00:24:32;;;;;;;6.82;2.83;;;436.10;1305.60;;;;;;5094004;28;20044;-75
2021/05/30 00:26:58;;;;;;;2.50;2.30;;;436.00;1331.20;;;;;;5093969;28;20031;-75
2021/05/30 00:29:24;;;;;;;3.28;2.05;;;436.00;1331.20;;;;;;5094272;28;20040;-75
2021/05/30 00:31:49;;;;;;;4.93;1.92;;;436.00;1331.20;;;;;;5094058;28;20027;-75
2021/05/30 00:34:15;;;;;;;4.22;2.45;;;436.00;1331.20;;;;;;5094069;28;20401;-74
2021/05/30 00:36:41;;;;;;;6.68;2.30;;;436.00;1331.20;;;;;;5093815;28;20446;-74
2021/05/30 00:39:06;;;;;;;3.22;2.17;;;436.00;1331.20;;;;;;5093978;28;20016;-75
2021/05/30 00:41:32;;;;;;;5.18;2.25;;;436.00;1331.20;;;;;;5093859;28;20077;-75
2021/05/30 00:43:58;;;;;;;2.45;2.10;;;436.00;1356.80;;;;;;5093843;28;20458;-75
2021/05/30 00:46:24;;;;;;;3.38;2.20;;;435.90;1356.80;;;;;;5093703;28;20085;-74
2021/05/30 00:48:50;;;;;;;2.90;2.15;;;435.90;1356.80;;;;;;5093668;28;20032;-75
2021/05/30 00:51:17;;;;;;;3.90;2.00;;;435.90;1356.80;;;;;;5093615;28;20016;-75
2021/05/30 00:53:43;;;;;;;3.35;2.47;;;435.90;1356.80;;;;;;5093666;28;20062;-74
2021/05/30 00:56:15;;;;;;;7.53;3.65;;;435.90;1356.80;;;;;;5093592;28;20023;-74
2021/05/30 00:58:42;;;;;;;8.77;3.55;;;435.90;1382.40;;;;;;5093769;28;20032;-75
2021/05/30 01:01:08;;;;;;;10.15;4.80;;;435.90;1382.40;;;;;;5093646;28;20046;-75
2021/05/30 01:03:38;;;;;;;17.83;5.47;;;435.90;1382.40;;;;;;5093607;28;20385;-75
2021/05/30 01:06:04;;;;;;;14.60;5.10;;;435.90;1382.40;;;;;;5093737;28;20025;-75
2021/05/30 01:08:31;;;;;;;13.82;5.47;;;435.90;1382.40;;;;;;5093491;28;20028;-73
2021/05/30 01:10:59;;;;;;;10.68;4.65;;;435.90;1382.40;;;;;;5093599;28;20035;-72
2021/05/30 01:13:26;;;;;;;8.93;3.65;;;435.90;1382.40;;;;;;5093807;28;20111;-75
2021/05/30 01:15:52;;;;;;;8.35;4.05;;;435.80;1382.40;;;;;;5094019;28;20024;-75
2021/05/30 01:18:23;;;;;;;11.32;5.00;;;435.80;1382.40;;;;;;5093925;28;20024;-75
2021/05/30 01:20:51;;;;;;;9.80;5.30;;;435.80;1356.80;;;;;;5093327;28;20020;-74
2021/05/30 01:23:18;;;;;;;11.20;5.15;;;435.70;1356.80;;;;;;5093160;28;20044;-74
2021/05/30 01:25:45;;;;;;;11.10;5.13;;;435.70;1382.40;;;;;;5093444;28;20035;-74
2021/05/30 01:28:11;;;;;;;11.55;4.95;;;435.70;1356.80;;;;;;5096052;28;20036;-74
2021/05/30 01:30:37;;;;;;;13.40;5.82;;;435.70;1356.80;;;;;;5097100;28;20028;-75
2021/05/30 01:33:24;;;;;;;13.25;6.00;;;435.60;1356.80;;;;;;5097145;28;20051;-75
2021/05/30 01:35:49;;;;;;;9.35;5.47;;;435.60;1356.80;;;;;;5096680;28;20043;-75
2021/05/30 01:38:15;;;;;;;9.88;4.97;;;435.60;1356.80;;;;;;5097110;28;20381;-74
2021/05/30 01:40:41;;;;;;;7.78;4.65;;;435.60;1356.80;;;;;;5096790;28;20017;-75
2021/05/30 01:43:08;;;;;;;11.82;5.78;;;435.50;1382.40;;;;;;5096940;28;20052;-74
2021/05/30 01:45:34;;;;;;;14.52;6.20;;;435.50;1356.80;;;;;;5097265;28;20020;-75
2021/05/30 01:48:02;;;;;;;8.88;5.05;;;435.50;1356.80;;;;;;5096989;28;20032;-74
2021/05/30 01:50:30;;;;;;;10.07;5.40;;;435.50;1356.80;;;;;;5096883;28;20020;-74
2021/05/30 01:53:00;;;;;;;9.55;5.65;;;435.50;1356.80;;;;;;5096857;28;20373;-74
2021/05/30 01:55:29;;;;;;;9.85;4.43;;;435.50;1356.80;;;;;;5096677;28;20078;-75
2021/05/30 01:57:58;;;;;;;5.45;3.60;;;435.40;1382.40;;;;;;5096904;28;20032;-74
2021/05/30 02:00:25;;;;;;;7.50;3.95;;;435.40;1382.40;;;;;;5096720;28;20051;-73
2021/05/30 02:02:55;;;;;;;5.97;3.60;;;435.40;1382.40;;;;;;5096548;28;20028;-74
2021/05/30 02:05:22;;;;;;;6.07;3.28;;;435.40;1382.40;;;;;;5096696;28;20123;-75
2021/05/30 02:07:49;;;;;;;7.00;2.95;;;435.30;1382.40;;;;;;5096460;28;20492;-73
2021/05/30 02:10:17;;;;;;;5.25;3.08;;;435.30;1382.40;;;;;;5096797;28;20485;-75
2021/05/30 02:12:46;;;;;;;8.07;2.88;;;435.30;1356.80;;;;;;5096639;28;20028;-76
2021/05/30 02:15:12;;;;;;;7.82;2.88;;;435.30;1382.40;;;;;;5096451;28;20512;-74
2021/05/30 02:17:39;;;;;;;4.57;2.90;;;435.30;1382.40;;;;;;5096358;28;20043;-75
2021/05/30 02:20:07;;;;;;;6.00;2.88;;;435.30;1356.80;;;;;;5096233;28;20048;-74
2021/05/30 02:22:33;;;;;;;3.30;2.30;;;435.30;1382.40;;;;;;5096312;28;20052;-74
2021/05/30 02:24:59;;;;;;;2.95;2.50;;;435.20;1356.80;;;;;;5097756;28;20480;-75
2021/05/30 02:27:25;;;;;;;3.65;2.58;;;435.20;1356.80;;;;;;5096227;28;20046;-74
2021/05/30 02:29:51;;;;;;;2.80;1.98;;;435.20;1382.40;;;;;;5094613;28;20032;-75
2021/05/30 02:32:17;;;;;;;6.07;2.20;;;435.20;1382.40;;;;;;5095810;28;20527;-74
2021/05/30 02:34:43;;;;;;;2.88;2.10;;;435.20;1356.80;;;;;;5096360;28;20020;-74
2021/05/30 02:37:11;;;;;;;3.33;2.50;;;435.20;1356.80;;;;;;5096068;28;20028;-74
2021/05/30 02:39:37;;;;;;;5.18;2.65;;;410.50;1356.80;;;;;;5093974;28;20036;-75
2021/05/30 02:42:04;;;;;;;3.83;2.88;;;410.50;1382.40;;;;;;5095734;28;20024;-74
2021/05/30 02:44:29;;;;;;;5.50;3.20;;;410.40;1382.40;;;;;;5095946;28;20040;-75
2021/05/30 02:46:55;;;;;;;3.63;2.47;;;410.40;1382.40;;;;;;5095929;28;20160;-74
2021/05/30 02:49:21;;;;;;;3.75;2.42;;;410.40;1382.40;;;;;;5095700;28;20031;-75
2021/05/30 02:51:47;;;;;;;4.40;2.40;;;410.30;1382.40;;;;;;5094472;28;20025;-73
2021/05/30 02:54:13;;;;;;;5.53;2.30;;;410.30;1382.40;;;;;;5095842;28;20115;-74
2021/05/30 02:56:40;;;;;;;5.55;3.40;;;410.20;1382.40;;;;;;5095634;28;20056;-75
2021/05/30 02:59:06;;;;;;;6.18;3.00;;;410.20;1382.40;;;;;;5095231;28;20058;-74
2021/05/30 03:01:31;;;;;;;5.03;3.05;;;410.20;1382.40;;;;;;5095770;28;20044;-75
2021/05/30 03:03:57;;;;;;;4.97;2.47;;;410.10;1382.40;;;;;;5095792;28;20024;-75
2021/05/30 03:06:26;;;;;;;5.13;2.45;;;410.10;1382.40;;;;;;5095528;28;20436;-74
2021/05/30 03:08:52;;;;;;;6.25;2.70;;;410.10;1382.40;;;;;;5095359;28;20059;-74
2021/05/30 03:11:21;;;;;;;3.10;1.95;;;410.00;1382.40;;;;;;5095361;28;20027;-68
2021/05/30 03:13:50;;;;;;;6.47;2.67;;;410.00;1408.00;;;;;;5095598;28;20028;-74
2021/05/30 03:16:16;;;;;;;4.15;2.20;;;410.00;1382.40;;;;;;5095274;28;20073;-74
2021/05/30 03:18:42;;;;;;;9.80;2.40;;;410.00;1408.00;;;;;;5095259;28;20382;-74
2021/05/30 03:21:08;;;;;;;8.80;2.50;;;410.00;1408.00;;;;;;5095180;28;20020;-74
2021/05/30 03:23:34;;;;;;;6.95;3.28;;;410.00;1408.00;;;;;;5094791;28;20118;-74
2021/05/30 03:26:00;;;;;;;4.85;3.33;;;409.90;1408.00;;;;;;5093544;28;20032;-74
2021/05/30 03:28:25;;;;;;;7.05;3.58;;;409.90;1408.00;;;;;;5094970;28;20036;-73
2021/05/30 03:30:51;;;;;;;6.55;2.55;;;409.90;1408.00;;;;;;5095151;28;20148;-74
2021/05/30 03:33:17;;;;;;;8.77;2.95;;;409.90;1408.00;;;;;;5093686;28;20054;-73
2021/05/30 03:35:45;;;;;;;3.75;2.90;;;409.80;1408.00;;;;;;5094911;28;20591;-74
2021/05/30 03:38:12;;;;;;;3.53;2.70;;;409.80;1433.60;;;;;;5094915;28;20393;-74
2021/05/30 03:40:49;;;;;;;5.30;3.10;;;409.80;1433.60;;;;;;5094629;28;20024;-74
2021/05/30 03:43:15;;;;;;;6.03;3.00;;;409.80;1433.60;;;;;;5094851;28;20035;-74
2021/05/30 03:45:41;;;;;;;5.35;3.47;;;409.80;1433.60;;;;;;5094860;28;20039;-74
2021/05/30 03:48:07;;;;;;;4.38;2.78;;;409.70;1459.20;;;;;;5094676;28;20369;-74
2021/05/30 03:50:34;;;;;;;3.78;2.55;;;409.70;1459.20;;;;;;5094095;28;20528;-72
2021/05/30 03:53:01;;;;;;;8.45;2.95;;;409.70;1459.20;;;;;;5094215;28;20020;-68
2021/05/30 03:55:27;;;;;;;10.38;3.13;;;409.60;1459.20;;;;;;5094415;28;20489;-68
2021/05/30 03:57:53;;;;;;;7.63;3.05;;;409.60;1459.20;;;;;;5094127;28;20115;-73
2021/05/30 04:00:19;;;;;;;10.52;2.50;;;409.60;1459.20;;;;;;5094039;28;20032;-74
2021/05/30 04:02:47;;;;;;;8.13;3.05;;;409.60;1459.20;;;;;;5094557;28;20432;-71
2021/05/30 04:05:14;;;;;;;7.55;3.35;;;409.60;1459.20;;;;;;5094371;28;20028;-74
2021/05/30 04:07:40;;;;;;;6.88;3.10;;;409.60;1459.20;;;;;;5094242;28;20080;-75
2021/05/30 04:10:10;;;;;;;10.23;3.92;;;384.90;1433.60;;;;;;5094263;28;20392;-75
2021/05/30 04:12:40;;;;;;;5.93;3.45;;;384.90;1433.60;;;;;;5094360;28;20150;-68
2021/05/30 04:15:11;;;;;;;4.88;3.33;;;384.90;1433.60;;;;;;5094105;28;20024;-68
2021/05/30 04:17:37;;;;;;;7.72;3.83;;;384.90;1459.20;;;;;;5094104;28;20041;-75
2021/05/30 04:20:10;;;;;;;5.03;3.30;;;384.90;1459.20;;;;;;5094205;28;20027;-74
2021/05/30 04:22:36;;;;;;;5.43;2.83;;;384.90;1459.20;;;;;;5094100;28;20451;-67
2021/05/30 04:25:04;;;;;;;7.05;2.60;;;384.90;1459.20;;;;;;5094044;28;20020;-67
2021/05/30 04:27:30;;;;;;;5.63;2.42;;;409.60;1459.20;;;;;;5094097;28;20378;-68
2021/05/30 04:29:55;;;;;;;4.20;2.60;;;409.60;1484.80;;;;;;5093997;28;20028;-74
2021/05/30 04:32:21;;;;;;;4.07;2.50;;;409.60;1459.20;;;;;;5094020;28;20465;-67
2021/05/30 04:34:47;;;;;;;3.47;2.38;;;409.70;1459.20;;;;;;5093954;28;20032;-74
2021/05/30 04:37:12;;;;;;;5.55;2.40;;;409.80;1459.20;;;;;;5094000;28;20111;-67
2021/05/30 04:39:38;;;;;;;3.55;2.10;;;409.80;1459.20;;;;;;5094018;28;20024;-74
2021/05/30 04:42:06;;;;;;;3.10;2.03;;;409.90;1433.60;;;;;;5094044;28;20032;-67
2021/05/30 04:44:32;;;;;;;2.85;2.30;;;410.00;1433.60;;;;;;5093736;28;20377;-73
2021/05/30 04:46:58;;;;;;;2.35;2.15;;;410.10;1433.60;;;;;;5093471;28;20023;-71
2021/05/30 04:49:24;;;;;;;2.17;1.85;;;410.30;1433.60;;;;;;5093469;28;20111;-67
2021/05/30 04:51:49;;;;;;;2.58;2.10;;;410.40;1408.00;;;;;;5093539;28;20381;-67
2021/05/30 04:54:15;;;;;;;3.70;2.30;;;435.20;1408.00;;;;;;5093795;28;20032;-68
2021/05/30 04:56:41;;;;;;;4.60;2.33;;;435.30;1382.40;;;;;;5093393;28;20469;-73
2021/05/30 04:59:06;;;;;;;5.80;2.10;;;435.40;1356.80;;;;;;5093691;28;20099;-75
2021/05/30 05:01:32;;;;;;;4.47;2.38;;;435.50;1356.80;;;;;;5093636;28;20020;-68
2021/05/30 05:03:58;;;;;;;3.28;2.05;;;435.70;1356.80;;;;;;5097221;28;20024;-67
2021/05/30 05:06:24;;;;;;;5.72;2.45;;;435.80;1356.80;;;;;;5097615;28;20016;-75
2021/05/30 05:08:50;;;;;;;4.25;2.25;;;435.90;1331.20;;;;;;5097579;28;20077;-68
2021/05/30 05:11:16;;;;;;;2.60;2.13;;;436.00;1331.20;;;;;;5097505;28;20024;-75
2021/05/30 05:13:42;;;;;;;5.15;2.97;;;435.90;1331.20;;;;;;5097639;28;20032;-75
2021/05/30 05:16:08;;;;;;;6.03;3.22;;;435.90;1331.20;;;;;;5097589;28;20020;-68
2021/05/30 05:18:33;;;;;;;4.47;2.90;;;436.00;1356.80;;;;;;5097702;28;20035;-69
2021/05/30 05:21:00;;;;;;;3.50;2.60;;;436.00;1356.80;;;;;;5097481;28;20107;-67
2021/05/30 05:23:27;;;;;;;5.13;2.92;;;460.80;1356.80;;;;;;5097199;28;20044;-75
2021/05/30 05:25:54;;;;;;;3.70;2.85;;;460.90;1331.20;;;;;;5097553;28;20047;-67
2021/05/30 05:28:21;;;;;;;5.70;2.65;;;461.00;1331.20;;;;;;5097164;28;20040;-74
2021/05/30 05:30:48;;;;;;;4.05;2.85;;;461.00;1331.20;;;;;;5097481;28;20028;-68
2021/05/30 05:33:14;;;;;;;2.67;2.10;;;461.20;1331.20;;;;;;5097395;28;20035;-68
2021/05/30 05:35:39;;;;;;;4.57;2.40;;;461.20;1331.20;;;;;;5097247;28;20087;-75
2021/05/30 05:38:05;;;;;;;4.43;2.47;;;461.30;1305.60;;;;;;5097298;28;20051;-72
2021/05/30 05:40:31;;;;;;;4.70;2.55;;;461.50;1280.00;;;;;;5097041;28;20051;-68
2021/05/30 05:42:58;;;;;;;3.05;2.28;;;461.60;1280.00;;;;;;5097205;28;20020;-67
2021/05/30 05:45:24;;;;;;;2.40;2.20;;;461.60;1280.00;;;;;;5097128;28;20027;-68
2021/05/30 05:47:51;;;;;;;4.40;2.75;;;461.70;1254.40;;;;;;5096895;28;20473;-73
2021/05/30 05:50:19;;;;;;;2.70;2.38;;;461.70;1280.00;;;;;;5096921;28;20104;-67
2021/05/30 05:52:46;;;;;;;2.83;2.35;;;486.40;1254.40;;;;;;5096815;28;20020;-76
2021/05/30 05:55:12;;;;;;;4.50;2.13;;;486.50;1254.40;;;;;;5096870;28;20020;-77
2021/05/30 05:57:39;;;;;;;3.22;2.17;;;486.60;1254.40;;;;;;5096583;28;20036;-75
2021/05/30 06:00:09;;;;;;;3.92;2.35;;;486.80;1228.80;;;;;;5096557;28;20028;-68
2021/05/30 06:02:35;;;;;;;3.28;2.40;;;486.90;1228.80;;;;;;5096582;28;20107;-76
2021/05/30 06:05:00;;;;;;;4.72;1.90;;;487.10;1203.20;;;;;;5096646;28;20099;-68
2021/05/30 06:07:26;;;;;;;3.95;2.22;;;487.20;1203.20;;;;;;5096711;28;20039;-67
2021/05/30 06:09:52;;;;;;;3.95;2.35;;;512.00;1203.20;;;;;;5096430;28;20020;-74
2021/05/30 06:12:18;;;;;;;4.97;2.63;;;512.10;1177.60;;;;;;5096612;28;20031;-75
2021/05/30 06:14:45;;;;;;;3.95;2.58;;;512.20;1177.60;;;;;;5094124;28;20035;-76
2021/05/30 06:17:11;;;;;;;2.15;1.95;;;512.50;1177.60;;;;;;5096502;28;20024;-69
2021/05/30 06:19:37;;;;;;;5.53;2.08;;;512.60;1152.00;;;;;;5096467;28;20025;-69
2021/05/30 06:22:05;;;;;;;4.32;2.47;;;537.60;1177.60;;;;;;5096267;28;20031;-68
2021/05/30 06:24:31;;;;;;;3.58;2.25;;;537.90;1152.00;;;;;;5095967;28;20051;-67
2021/05/30 06:26:59;;;;;;;5.40;2.65;;;538.10;1126.40;;;;;;5096232;28;20020;-67
2021/05/30 06:29:25;;;;;;;5.15;2.47;;;538.10;1100.80;;;;;;5096196;28;20065;-67
2021/05/30 06:31:51;;;;;;;6.65;2.63;;;538.20;1100.80;;;;;;5096314;28;20114;-75
2021/05/30 06:34:16;;;;;;;4.45;2.67;;;538.00;1126.40;;;;;;5096204;28;20032;-74
2021/05/30 06:36:43;;;;;;;4.22;2.25;;;537.90;1126.40;;;;;;5095791;28;20095;-75
2021/05/30 06:39:09;;;;;;;4.47;2.33;;;537.90;1126.40;;;;;;5096160;28;20028;-67
2021/05/30 06:41:36;;;;;;;8.23;2.55;;;537.70;1152.00;;;;;;5095764;28;20034;-75
2021/05/30 06:44:02;;;;;;;4.38;2.30;;;537.90;1152.00;;;;;;5095612;28;20061;-67
2021/05/30 06:46:28;;;;;;;8.70;2.38;;;537.90;1126.40;;;;;;5096214;28;20453;-75
2021/05/30 06:48:54;;;;;;;2.95;2.05;;;538.00;1126.40;;;;;;5095987;28;20040;-67
2021/05/30 06:51:22;;;;;;;6.18;2.10;;;538.10;1126.40;;;;;;5095806;28;20024;-67
2021/05/30 06:53:49;;;;;;;5.75;2.15;;;538.50;1100.80;;;;;;5095877;28;20103;-75
2021/05/30 06:56:16;;;;;;;3.17;2.40;;;563.40;1126.40;;;;;;5095820;28;20017;-67
2021/05/30 06:58:42;;;;;;;2.45;2.10;;;563.70;1100.80;;;;;;5095495;28;20032;-68
2021/05/30 07:01:08;;;;;;;2.58;1.90;;;563.80;1075.20;;;;;;5095591;28;20016;-75
2021/05/30 07:03:35;;;;;;;2.35;1.92;;;563.90;1075.20;;;;;;5094885;28;20105;-75
2021/05/30 07:06:00;;;;;;;6.50;2.40;;;564.00;1049.60;;;;;;5095039;28;20447;-70
2021/05/30 07:08:26;;;;;;;10.68;2.10;;;588.80;1049.60;;;;;;5095155;28;20107;-75
2021/05/30 07:10:53;;;;;;;12.07;2.50;;;589.10;1024.00;;;;;;5095118;28;20451;-75
2021/05/30 07:13:19;;;;;;;4.90;2.08;;;589.40;1024.00;;;;;;5095328;28;20101;-76
2021/05/30 07:15:45;;;;;;;5.32;3.10;;;589.70;998.40;;;;;;5095280;28;20477;-74
2021/05/30 07:18:11;;;;;;;9.43;2.60;;;614.40;998.40;;;;;;5095266;28;20036;-74
2021/05/30 07:20:37;;;;;;;21.63;3.05;;;614.70;972.80;;;;;;5095231;28;20047;-74
2021/05/30 07:23:02;;;;;;;12.18;2.75;;;615.00;947.20;;;;;;5094947;28;20478;-73
2021/05/30 07:25:29;;;;;;;10.82;3.78;;;615.10;921.60;;;;;;5094696;28;20028;-74
2021/05/30 07:27:55;;;;;;;6.93;2.22;;;615.10;921.60;;;;;;5094830;28;20044;-74
2021/05/30 07:30:21;;;;;;;7.53;2.42;;;615.10;921.60;;;;;;5095122;28;20038;-74
2021/05/30 07:32:47;;;;;;;9.60;2.72;;;614.90;921.60;;;;;;5094591;28;20453;-73
2021/05/30 07:35:13;;;;;;;6.68;2.40;;;614.80;947.20;;;;;;5094712;28;20530;-70
2021/05/30 07:37:39;;;;;;;11.20;4.95;;;614.50;947.20;;;;;;5094540;28;20046;-70
2021/05/30 07:40:05;;;;;;;6.22;3.75;;;589.70;947.20;;;;;;5094862;28;20426;-73
2021/05/30 07:42:31;;;;;;;9.93;3.53;;;589.60;972.80;;;;;;5094637;28;20389;-72
2021/05/30 07:44:57;;;;;;;10.85;8.38;;;589.40;972.80;;;;;;5094513;28;20020;-70
2021/05/30 07:47:23;;;;;;;31.13;19.40;;;589.50;972.80;;;;;;5094788;28;20103;-73
2021/05/30 07:49:50;;;;;;;38.03;22.15;;;614.50;947.20;;;;;;5094518;28;20036;-73
2021/05/30 07:52:15;;;;;;;30.00;19.67;;;614.90;947.20;;;;;;5094666;28;20016;-71
2021/05/30 07:54:41;;;;;;;22.55;14.55;;;615.30;921.60;;;;;;5095079;28;20515;-69
2021/05/30 07:57:08;;;;;;;25.13;10.70;;;640.30;896.00;;;;;;5094485;28;20031;-67
2021/05/30 07:59:34;;;;;;;12.15;7.28;;;640.30;896.00;;;;;;5094335;28;20188;-66
2021/05/30 08:02:00;;;;;;;16.33;5.93;;;640.30;896.00;;;;;;5094256;28;20028;-67
2021/05/30 08:04:26;;;;;;;9.77;4.75;;;640.50;844.80;;;;;;5094469;28;20031;-68
2021/05/30 08:06:51;;;;;;;8.88;4.53;;;640.70;870.40;;;;;;5093806;28;20024;-67
2021/05/30 08:09:17;;;;;;;6.18;3.67;;;640.60;870.40;;;;;;5094298;28;20044;-67
2021/05/30 08:11:43;;;;;;;5.38;2.78;;;640.40;870.40;;;;;;5094126;28;20024;-68
2021/05/30 08:14:09;;;;;;;11.45;2.75;;;640.20;870.40;;;;;;5094199;28;20016;-68
2021/05/30 08:16:35;;;;;;;4.53;2.28;;;615.30;896.00;;;;;;5093984;28;20038;-66
2021/05/30 08:19:01;;;;;;;5.72;2.42;;;615.00;896.00;;;;;;5093671;28;20020;-66
2021/05/30 08:21:27;;;;;;;9.43;2.47;;;614.80;921.60;;;;;;5091551;28;20099;-68
2021/05/30 08:23:53;;;;;;;4.07;2.30;;;614.50;921.60;;;;;;5093838;28;20051;-68
2021/05/30 08:26:20;;;;;;;4.45;2.22;;;614.40;947.20;;;;;;5092724;28;20028;-67
2021/05/30 08:28:46;;;;;;;10.95;2.20;;;589.50;947.20;;;;;;5092794;28;20043;-72
2021/05/30 08:31:11;;;;;;;9.00;1.88;;;589.70;947.20;;;;;;5093419;28;20020;-67
2021/05/30 08:33:37;;;;;;;7.15;1.98;;;614.60;921.60;;;;;;5093596;28;20477;-68
2021/05/30 08:36:03;;;;;;;5.40;1.65;;;615.10;896.00;;;;;;5093304;28;20020;-66
2021/05/30 08:38:30;;;;;;;3.03;1.70;;;640.10;896.00;;;;;;5092895;28;20028;-68
2021/05/30 08:40:57;;;;;;;3.95;1.63;;;640.60;844.80;;;;;;5093472;28;20023;-67
2021/05/30 08:43:23;;;;;;;6.70;1.55;;;665.70;844.80;;;;;;5092751;28;20020;-66
2021/05/30 08:45:50;;;;;;;5.50;1.50;;;666.00;844.80;;;;;;5092805;28;20077;-69
2021/05/30 08:48:16;;;;;;;5.65;1.17;;;666.10;819.20;;;;;;5093721;28;20386;-70
2021/05/30 08:50:42;;;;;;;3.35;1.35;;;665.80;819.20;;;;;;5092917;28;20016;-68
2021/05/30 08:53:09;;;;;;;6.32;1.75;;;665.70;793.60;;;;;;5093161;28;20024;-67
2021/05/30 08:55:37;;;;;;;5.30;1.85;;;665.60;793.60;;;;;;5093107;28;20539;-68
2021/05/30 08:58:05;;;;;;;1.55;1.02;;;665.90;793.60;;;;;;5091054;28;20368;-70
2021/05/30 09:00:32;;;;;;;8.02;1.45;;;666.30;768.00;;;;;;5093178;28;20012;-66
2021/05/30 09:03:14;;;;;;;4.28;1.40;;;691.20;768.00;;;;;;5091739;28;20028;-66
2021/05/30 09:05:41;;;;;;;6.90;1.48;;;691.60;768.00;;;;;;5092969;28;20016;-68
2021/05/30 09:08:08;;;;;;;7.78;1.42;;;691.70;742.40;;;;;;5092810;28;20040;-70
2021/05/30 09:10:35;;;;;;;5.25;1.15;;;691.90;716.80;;;;;;5092361;28;20492;-69
2021/05/30 09:13:17;;;;;;;6.97;1.90;;;691.70;716.80;;;;;;5093298;28;20465;-67
2021/05/30 09:18:20;;;;;;;7.05;1.60;;;691.40;691.20;;;;;;5092797;28;20028;-67
2021/05/30 09:20:54;;;;;;;7.25;2.05;;;691.60;691.20;;;;;;5093237;28;20032;-67
2021/05/30 09:23:30;;;;;;;5.15;1.58;;;692.00;691.20;;;;;;5092111;28;20044;-66
2021/05/30 09:26:11;;;;;;;8.82;1.50;;;716.90;691.20;;;;;;5093022;28;20032;-68
2021/05/30 09:28:39;;;;;;;4.28;1.63;;;692.10;691.20;;;;;;5091589;28;20042;-66
2021/05/30 09:31:05;;;;;;;7.50;1.40;;;691.80;716.80;;;;;;5091865;28;20016;-69
2021/05/30 09:33:33;;;;;;;4.10;1.63;;;691.50;716.80;;;;;;5091936;28;20074;-68
2021/05/30 09:36:02;;;;;;;4.78;1.50;;;666.50;716.80;;;;;;5089948;28;20024;-69
2021/05/30 09:38:32;;;;;;;2.15;1.30;;;691.30;716.80;;;;;;5092290;28;20350;-67
2021/05/30 09:41:00;;;;;;;4.28;1.20;;;691.60;716.80;;;;;;5093071;28;20028;-67
2021/05/30 09:43:35;;;;;;;2.00;1.45;;;691.90;691.20;;;;;;5093032;28;20027;-67
2021/05/30 09:46:13;;;;;;;4.00;1.45;;;716.80;716.80;;;;;;5093513;28;20099;-67
2021/05/30 09:48:42;;;;;;;3.63;1.20;;;717.10;691.20;;;;;;5094505;28;20040;-68
2021/05/30 09:51:28;;;;;;;2.20;1.50;;;717.40;691.20;;;;;;5096977;28;20024;-68
2021/05/30 09:54:04;;;;;;;5.97;1.52;;;717.60;665.60;;;;;;5096876;28;20032;-69
2021/05/30 09:56:42;;;;;;;3.38;1.60;;;742.50;691.20;;;;;;5096669;28;20024;-68
2021/05/30 09:59:12;;;;;;;3.45;1.20;;;742.60;665.60;;;;;;5096972;28;20028;-67
2021/05/30 10:01:59;;;;;;;1.23;1.13;;;742.80;665.60;;;;;;5094976;28;20024;-67
2021/05/30 10:04:34;;;;;;;3.58;1.20;;;743.00;640.00;;;;;;5093163;28;20435;-67
2021/05/30 10:07:01;;;;;;;3.85;1.27;;;743.20;640.00;;;;;;5094234;28;20055;-68
2021/05/30 10:09:28;;;;;;;10.65;2.25;;;743.30;640.00;;;;;;5095556;28;20074;-72
2021/05/30 10:11:58;;;;;;;7.97;1.88;;;768.00;640.00;;;;;;5096148;28;20400;-72
2021/05/30 10:14:26;;;;;;;5.78;1.60;;;768.10;614.40;;;;;;5096041;28;20028;-71
2021/05/30 10:16:52;;;;;;;4.55;1.65;;;768.10;588.80;;;;;;5095738;28;20436;-72
2021/05/30 10:19:30;;;;;;;2.97;1.10;;;743.20;588.80;;;;;;5095219;28;20076;-72
2021/05/30 10:21:59;;;;;;;5.53;1.00;;;742.80;614.40;;;;;;5096073;28;20069;-72
2021/05/30 10:24:27;;;;;;;2.95;1.25;;;742.40;640.00;;;;;;5095621;28;20060;-72
2021/05/30 10:27:19;;;;;;;8.40;1.40;;;717.40;614.40;;;;;;5095446;28;20021;-72
2021/05/30 10:30:06;;;;;;;7.75;1.20;;;716.90;640.00;;;;;;5095617;28;20032;-71
2021/05/30 10:32:33;;;;;;;5.78;1.05;;;717.10;640.00;;;;;;5095045;28;20048;-72
2021/05/30 10:35:21;;;;;;;2.92;1.20;;;717.20;614.40;;;;;;5094888;28;20107;-71
2021/05/30 10:37:56;;;;;;;1.08;0.80;;;717.20;614.40;;;;;;5095550;28;20084;-71
2021/05/30 10:40:22;;;;;;;1.52;1.00;;;717.00;640.00;;;;;;5095421;28;20465;-72
2021/05/30 10:43:09;;;;;;;4.72;1.20;;;692.00;665.60;;;;;;5095317;28;20016;-72
2021/05/30 10:45:44;;;;;;;5.30;1.10;;;691.80;640.00;;;;;;5080450;28;20206;-71
2021/05/30 10:48:13;;;;;;;3.10;1.45;;;691.40;665.60;;;;;;5095308;28;20043;-71
2021/05/30 10:53:48;;;;;;;4.32;1.15;;;691.40;665.60;;;;;;5095313;28;20089;-70
2021/05/30 10:56:26;;;;;;;3.40;1.10;;;691.40;640.00;;;;;;5094983;28;20036;-71
2021/05/30 10:59:04;;;;;;;3.30;1.10;;;691.70;640.00;;;;;;5094950;28;20115;-71
2021/05/30 11:01:49;;;;;;;2.75;1.00;;;692.00;588.80;;;;;;5094653;28;20073;-72
2021/05/30 11:04:27;;;;;;;5.43;1.02;;;692.00;588.80;;;;;;5094678;28;20028;-71
2021/05/30 11:06:53;;;;;;;2.15;1.27;;;716.80;640.00;;;;;;5094938;28;20530;-71
2021/05/30 11:09:20;;;;;;;16.90;1.58;;;691.90;640.00;;;;;;5094690;28;20118;-70
2021/05/30 11:12:24;;;;;;;12.25;2.08;;;691.80;665.60;;;;;;5094471;28;20016;-72
2021/05/30 11:15:11;;;;;;;10.77;1.98;;;691.90;640.00;;;;;;5094669;28;20024;-72
2021/05/30 11:17:45;;;;;;;3.53;1.20;;;716.90;665.60;;;;;;5093562;28;20050;-76
2021/05/30 11:20:12;;;;;;;;;;;717.00;640.00;;;;;;5094824;28;20028;-76
2021/05/30 11:22:48;;;;;;;2.97;1.10;;;716.90;640.00;;;;;;5094456;28;20369;-71
2021/05/30 11:25:31;;;;;;;4.70;1.65;;;692.00;614.40;;;;;;5093194;28;20394;-73
2021/05/30 11:28:05;;;;;;;3.83;1.25;;;691.70;640.00;;;;;;5093653;28;20035;-74
2021/05/30 11:30:43;;;;;;;5.22;1.40;;;691.70;640.00;;;;;;5093930;28;20016;-75
2021/05/30 11:33:45;;;;;;;3.72;1.33;;;691.50;614.40;;;;;;5094116;28;20100;-72
2021/05/30 11:36:11;;;;;;;1.20;0.90;;;691.40;640.00;;;;;;5093494;28;20020;-75
2021/05/30 11:38:53;;;;;;;1.65;1.10;;;691.20;665.60;;;;;;5094215;28;20359;-76
2021/05/30 11:41:30;;;;;;;2.60;1.30;;;666.40;665.60;;;;;;5093922;28;20024;-76
2021/05/30 11:43:56;;;;;;;1.80;1.20;;;666.40;691.20;;;;;;5094745;28;20024;-78
2021/05/30 11:46:22;;;;;;;1.55;1.02;;;666.40;691.20;;;;;;5094757;28;20074;-78
2021/05/30 11:49:04;;;;;;;12.68;1.77;;;666.40;691.20;;;;;;5094656;28;20039;-68
2021/05/30 11:51:52;;;;;;;1.63;1.05;;;666.50;665.60;;;;;;5094695;28;20051;-78
2021/05/30 11:54:20;;;;;;;3.80;1.60;;;691.50;665.60;;;;;;5094498;28;20028;-78
2021/05/30 11:56:52;;;;;;;2.83;1.45;;;691.90;665.60;;;;;;5094472;28;20428;-67
2021/05/30 11:59:32;;;;;;;2.90;1.20;;;716.90;665.60;;;;;;5094618;28;20095;-67
2021/05/30 12:01:58;;;;;;;5.22;1.20;;;717.20;640.00;;;;;;5094515;28;20028;-78
2021/05/30 12:04:32;;;;;;;1.50;1.20;;;717.10;640.00;;;;;;5094529;28;20031;-68
2021/05/30 12:06:58;;;;;;;;;;;717.10;640.00;;;;;;5094783;28;20465;-67
2021/05/30 12:09:47;;;;;;;2.17;1.40;;;717.20;614.40;;;;;;5094394;28;19919;-68
2021/05/30 12:12:29;;;;;;;1.27;1.17;;;717.00;640.00;;;;;;5093333;28;20536;-67
2021/05/30 12:15:03;;;;;;;3.78;1.50;;;717.00;640.00;;;;;;5094275;28;20038;-68
2021/05/30 12:17:29;;;;;;;2.38;2.17;;;716.90;640.00;;;;;;5094088;28;20021;-69
2021/05/30 12:19:55;;;;;;;3.35;1.60;;;717.00;640.00;;;;;;5093931;28;20032;-70
2021/05/30 12:22:31;;;;;;;4.53;1.50;;;717.00;665.60;;;;;;5094030;28;20040;-78
2021/05/30 12:24:58;;;;;;;1.63;1.50;;;717.10;640.00;;;;;;5094499;28;20462;-78
2021/05/30 12:27:25;;;;;;;1.83;1.58;;;717.10;640.00;;;;;;5094298;28;20024;-67
2021/05/30 12:29:52;;;;;;;1.60;1.15;;;717.40;665.60;;;;;;5093802;28;20039;-67
2021/05/30 12:32:20;;;;;;;1.60;1.17;;;717.60;640.00;;;;;;5094141;28;20047;-67